createdAt,value
2018-03-11T00:01:59.929Z,99824.42
2018-03-11T00:04:28.498Z,99824.53
2018-03-11T00:06:57.699Z,99816.66
2018-03-11T00:09:26.286Z,99816.58
2018-03-11T00:11:55.067Z,99815.98
2018-03-11T00:14:24.061Z,99822.50
2018-03-11T00:16:52.710Z,99820.10
2018-03-11T00:19:21.391Z,99816.13
2018-03-11T00:21:50.225Z,99819.28
2018-03-11T00:24:18.842Z,99818.43
2018-03-11T00:26:47.600Z,99818.52
2018-03-11T00:29:16.654Z,99821.17
2018-03-11T00:31:45.121Z,99820.86
2018-03-11T00:34:13.738Z,99822.13
2018-03-11T00:36:43.156Z,99817.67
2018-03-11T00:39:12.230Z,99813.02
2018-03-11T00:41:40.847Z,99816.09
2018-03-11T00:44:09.496Z,99813.80
2018-03-11T00:46:38.068Z,99812.89
2018-03-11T00:49:06.506Z,99812.16
2018-03-11T00:51:35.149Z,99809.94
2018-03-11T00:54:03.615Z,99812.33
2018-03-11T00:56:32.091Z,99808.92
2018-03-11T00:59:00.623Z,99804.23
2018-03-11T01:01:29.688Z,99806.39
2018-03-11T01:03:58.199Z,99805.14
2018-03-11T01:06:27.553Z,99802.44
2018-03-11T01:08:56.036Z,99793.69
2018-03-11T01:11:24.465Z,99798.52
2018-03-11T01:13:52.992Z,99795.09
2018-03-11T01:16:22.342Z,99792.73
2018-03-11T01:18:50.781Z,99793.36
2018-03-11T01:21:20.140Z,99796.09
2018-03-11T01:23:48.914Z,99794.63
2018-03-11T01:26:17.503Z,99793.69
2018-03-11T01:28:47.237Z,99785.00
2018-03-11T01:31:15.705Z,99783.66
2018-03-11T01:33:44.425Z,99783.19
2018-03-11T01:36:13.005Z,99785.78
2018-03-11T01:38:41.518Z,99780.73
2018-03-11T01:41:10.041Z,99779.09
2018-03-11T01:43:39.124Z,99770.16
2018-03-11T01:46:07.569Z,99771.02
2018-03-11T01:48:35.976Z,99768.06
2018-03-11T01:51:04.578Z,99768.61
2018-03-11T01:53:33.010Z,99778.86
2018-03-11T01:56:01.431Z,99773.89
2018-03-11T01:58:30.085Z,99766.66
2018-03-11T02:00:58.528Z,99767.76
2018-03-11T02:03:26.973Z,99764.09
2018-03-11T02:05:56.748Z,99766.73
2018-03-11T02:08:25.188Z,99751.52
2018-03-11T02:10:54.339Z,99749.41
2018-03-11T02:13:23.214Z,99745.61
2018-03-11T02:15:51.662Z,99737.94
2018-03-11T02:18:20.073Z,99739.03
2018-03-11T02:20:48.594Z,99734.31
2018-03-11T02:23:17.040Z,99739.89
2018-03-11T02:25:45.552Z,99741.56
2018-03-11T02:28:14.054Z,99733.83
2018-03-11T02:30:42.723Z,99734.87
2018-03-11T02:33:11.331Z,99736.49
2018-03-11T02:35:39.829Z,99728.11
2018-03-11T02:38:08.327Z,99727.81
2018-03-11T02:40:36.760Z,99726.59
2018-03-11T02:43:05.229Z,99717.97
2018-03-11T02:45:33.878Z,99719.72
2018-03-11T02:48:02.372Z,99718.37
2018-03-11T02:50:31.410Z,99718.09
2018-03-11T02:52:59.845Z,99716.58
2018-03-11T02:55:28.416Z,99719.60
2018-03-11T02:57:56.953Z,99722.26
2018-03-11T03:00:25.410Z,99718.75
2018-03-11T03:02:53.886Z,99723.98
2018-03-11T03:05:22.647Z,99717.77
2018-03-11T03:07:51.168Z,99716.74
2018-03-11T03:10:19.629Z,99710.16
2018-03-11T03:12:48.236Z,99712.34
2018-03-11T03:15:17.228Z,99707.45
2018-03-11T03:17:45.910Z,99714.75
2018-03-11T03:20:14.394Z,99709.14
2018-03-11T03:22:42.878Z,99713.55
2018-03-11T03:25:11.424Z,99704.79
2018-03-11T03:27:39.939Z,99706.54
2018-03-11T03:30:08.424Z,99716.80
2018-03-11T03:32:36.868Z,99711.06
2018-03-11T03:35:05.895Z,99708.59
2018-03-11T03:37:34.480Z,99710.34
2018-03-11T03:40:02.961Z,99701.66
2018-03-11T03:42:32.944Z,99703.22
2018-03-11T03:45:01.359Z,99704.79
2018-03-11T03:47:29.836Z,99713.73
2018-03-11T03:49:58.422Z,99714.33
2018-03-11T03:52:26.896Z,99714.46
2018-03-11T03:54:55.382Z,99715.00
2018-03-11T03:57:24.679Z,99710.47
2018-03-11T03:59:53.091Z,99710.33
2018-03-11T04:02:21.575Z,99706.70
2018-03-11T04:04:50.086Z,99714.98
2018-03-11T04:07:18.641Z,99705.14
2018-03-11T04:09:47.186Z,99706.70
2018-03-11T04:12:15.871Z,99701.81
2018-03-11T04:14:44.321Z,99711.90
2018-03-11T04:17:12.828Z,99708.22
2018-03-11T04:19:42.330Z,99698.80
2018-03-11T04:22:10.912Z,99702.42
2018-03-11T04:24:39.346Z,99693.79
2018-03-11T04:27:07.825Z,99699.47
2018-03-11T04:29:37.225Z,99693.79
2018-03-11T04:32:05.752Z,99695.34
2018-03-11T04:34:35.231Z,99693.41
2018-03-11T04:37:03.657Z,99696.97
2018-03-11T04:39:33.048Z,99695.34
2018-03-11T04:42:01.893Z,99701.38
2018-03-11T04:44:30.459Z,99699.69
2018-03-11T04:46:58.886Z,99698.72
2018-03-11T04:49:28.220Z,99697.61
2018-03-11T04:51:58.617Z,99689.21
2018-03-11T04:54:27.107Z,99697.88
2018-03-11T04:56:56.269Z,99689.45
2018-03-11T04:59:24.876Z,99697.66
2018-03-11T05:01:53.345Z,99692.43
2018-03-11T05:04:22.784Z,99688.26
2018-03-11T05:06:51.253Z,99690.73
2018-03-11T05:09:19.790Z,99688.98
2018-03-11T05:11:48.612Z,99686.73
2018-03-11T05:14:17.121Z,99685.58
2018-03-11T05:16:45.768Z,99688.19
2018-03-11T05:19:14.255Z,99691.09
2018-03-11T05:21:42.688Z,99688.19
2018-03-11T05:24:11.548Z,99691.66
2018-03-11T05:26:40.678Z,99684.77
2018-03-11T05:29:09.197Z,99682.53
2018-03-11T05:31:37.704Z,99679.20
2018-03-11T05:34:06.261Z,99680.78
2018-03-11T05:36:34.811Z,99679.51
2018-03-11T05:39:03.427Z,99680.34
2018-03-11T05:41:32.010Z,99686.02
2018-03-11T05:44:00.460Z,99677.69
2018-03-11T05:46:28.879Z,99678.84
2018-03-11T05:48:57.443Z,99674.02
2018-03-11T05:51:25.859Z,99674.72
2018-03-11T05:53:54.279Z,99671.89
2018-03-11T05:56:22.773Z,99674.13
2018-03-11T05:58:51.193Z,99674.44
2018-03-11T06:01:19.769Z,99671.16
2018-03-11T06:03:48.316Z,99670.26
2018-03-11T06:06:16.899Z,99669.09
2018-03-11T06:08:45.700Z,99660.40
2018-03-11T06:11:14.182Z,99661.49
2018-03-11T06:13:42.982Z,99665.42
2018-03-11T06:16:11.646Z,99659.54
2018-03-11T06:18:40.374Z,99661.86
2018-03-11T06:21:09.838Z,99665.95
2018-03-11T06:23:38.257Z,99662.55
2018-03-11T06:26:07.414Z,99663.70
2018-03-11T06:28:36.142Z,99663.95
2018-03-11T06:31:04.622Z,99666.91
2018-03-11T06:33:34.086Z,99668.47
2018-03-11T06:36:02.518Z,99668.98
2018-03-11T06:38:30.934Z,99662.66
2018-03-11T06:40:59.525Z,99667.20
2018-03-11T06:43:27.998Z,99668.78
2018-03-11T06:45:57.437Z,99664.41
2018-03-11T06:48:25.920Z,99661.23
2018-03-11T06:50:54.463Z,99661.10
2018-03-11T06:53:23.041Z,99663.55
2018-03-11T06:55:51.644Z,99665.17
2018-03-11T06:58:20.162Z,99674.36
2018-03-11T07:00:48.615Z,99667.06
2018-03-11T07:03:17.141Z,99663.74
2018-03-11T07:05:45.860Z,99673.13
2018-03-11T07:08:14.332Z,99672.34
2018-03-11T07:10:42.868Z,99671.98
2018-03-11T07:13:11.401Z,99666.89
2018-03-11T07:15:39.886Z,99670.63
2018-03-11T07:18:09.087Z,99671.48
2018-03-11T07:20:37.532Z,99669.83
2018-03-11T07:23:06.014Z,99672.00
2018-03-11T07:25:34.500Z,99670.73
2018-03-11T07:28:02.983Z,99670.31
2018-03-11T07:30:31.529Z,99674.47
2018-03-11T07:33:00.446Z,99676.52
2018-03-11T07:35:28.956Z,99671.38
2018-03-11T07:37:57.525Z,99666.97
2018-03-11T07:40:26.427Z,99676.22
2018-03-11T07:42:54.873Z,99667.39
2018-03-11T07:45:23.339Z,99664.53
2018-03-11T07:47:52.271Z,99660.50
2018-03-11T07:50:20.833Z,99655.70
2018-03-11T07:52:49.305Z,99657.31
2018-03-11T07:55:17.931Z,99653.94
2018-03-11T07:57:46.456Z,99652.05
2018-03-11T08:00:14.929Z,99645.09
2018-03-11T08:02:47.835Z,99634.67
2018-03-11T08:05:16.347Z,99632.00
2018-03-11T08:07:44.859Z,99643.78
2018-03-11T08:10:13.791Z,99656.27
2018-03-11T08:12:42.377Z,99658.67
2018-03-11T08:15:11.609Z,99665.20
2018-03-11T08:17:40.384Z,99664.98
2018-03-11T08:20:08.975Z,99669.74
2018-03-11T08:22:37.452Z,99657.77
2018-03-11T08:25:05.940Z,99651.59
2018-03-11T08:27:34.461Z,99646.26
2018-03-11T08:30:02.947Z,99657.68
2018-03-11T08:32:39.588Z,99653.55
2018-03-11T08:35:08.667Z,99653.95
2018-03-11T08:37:38.191Z,99647.66
2018-03-11T08:40:06.673Z,99641.19
2018-03-11T08:42:35.262Z,99650.38
2018-03-11T08:45:03.917Z,99644.48
2018-03-11T08:47:34.088Z,99640.72
2018-03-11T08:50:02.614Z,99640.36
2018-03-11T08:52:31.132Z,99640.48
2018-03-11T08:55:00.393Z,99647.39
2018-03-11T08:57:28.884Z,99643.09
2018-03-11T08:59:57.349Z,99644.63
2018-03-11T09:02:26.239Z,99641.99
2018-03-11T09:04:54.705Z,99647.73
2018-03-11T09:07:23.231Z,99648.28
2018-03-11T09:09:51.862Z,99643.09
2018-03-11T09:12:22.223Z,99647.39
2018-03-11T09:14:50.765Z,99643.73
2018-03-11T09:17:19.584Z,99637.77
2018-03-11T09:19:48.545Z,99639.71
2018-03-11T09:22:17.069Z,99639.59
2018-03-11T09:24:46.531Z,99645.41
2018-03-11T09:27:15.159Z,99629.91
2018-03-11T09:29:43.619Z,99631.39
2018-03-11T09:32:12.463Z,99626.88
2018-03-11T09:34:41.195Z,99626.81
2018-03-11T09:37:09.769Z,99623.91
2018-03-11T09:39:38.465Z,99617.49
2018-03-11T09:42:07.037Z,99616.80
2018-03-11T09:44:35.529Z,99620.31
2018-03-11T09:47:04.458Z,99611.91
2018-03-11T09:49:32.932Z,99604.08
2018-03-11T09:52:01.440Z,99604.45
2018-03-11T09:54:30.919Z,99600.76
2018-03-11T09:56:59.552Z,99598.24
2018-03-11T09:59:28.061Z,99602.17
2018-03-11T10:01:57.337Z,99593.06
2018-03-11T10:04:25.825Z,99584.56
2018-03-11T10:06:54.505Z,99586.10
2018-03-11T10:09:23.149Z,99594.48
2018-03-11T10:11:51.920Z,99584.78
2018-03-11T10:14:21.179Z,99589.97
2018-03-11T10:16:49.815Z,99594.47
2018-03-11T10:19:18.474Z,99599.81
2018-03-11T10:21:47.081Z,99594.20
2018-03-11T10:24:16.231Z,99600.67
2018-03-11T10:26:44.837Z,99606.15
2018-03-11T10:29:13.492Z,99594.63
2018-03-11T10:31:43.100Z,99591.80
2018-03-11T10:34:11.657Z,99586.61
2018-03-11T10:36:40.271Z,99587.99
2018-03-11T10:39:08.759Z,99580.23
2018-03-11T10:41:37.253Z,99575.84
2018-03-11T10:44:05.785Z,99574.15
2018-03-11T10:46:34.448Z,99569.91
2018-03-11T10:49:03.188Z,99571.76
2018-03-11T10:51:31.802Z,99568.53
2018-03-11T10:54:00.390Z,99564.05
2018-03-11T10:56:29.100Z,99567.50
2018-03-11T10:58:57.525Z,99555.51
2018-03-11T11:01:31.634Z,99554.88
2018-03-11T11:04:02.884Z,99563.08
2018-03-11T11:06:31.641Z,99553.11
2018-03-11T11:09:00.269Z,99536.89
2018-03-11T11:11:28.754Z,99528.86
2018-03-11T11:13:57.311Z,99520.70
2018-03-11T11:16:26.556Z,99513.26
2018-03-11T11:18:55.086Z,99520.70
2018-03-11T11:21:23.682Z,99517.89
2018-03-11T11:23:53.113Z,99526.88
2018-03-11T11:26:21.588Z,99527.63
2018-03-11T11:28:50.356Z,99520.16
2018-03-11T11:31:19.200Z,99509.56
2018-03-11T11:33:47.827Z,99498.45
2018-03-11T11:36:16.352Z,99494.45
2018-03-11T11:38:44.991Z,99484.36
2018-03-11T11:41:13.574Z,99473.63
2018-03-11T11:43:43.070Z,99472.45
2018-03-11T11:46:12.277Z,99463.92
2018-03-11T11:48:40.885Z,99459.20
2018-03-11T11:51:09.858Z,99460.63
2018-03-11T11:53:38.848Z,99454.75
2018-03-11T11:56:07.596Z,99447.11
2018-03-11T11:58:36.041Z,99448.30
2018-03-11T12:01:04.806Z,99443.52
2018-03-11T12:03:33.388Z,99434.75
2018-03-11T12:06:01.967Z,99442.57
2018-03-11T12:08:30.672Z,99442.12
2018-03-11T12:10:59.178Z,99448.84
2018-03-11T12:13:27.641Z,99445.31
2018-03-11T12:15:56.999Z,99437.02
2018-03-11T12:18:25.634Z,99425.30
2018-03-11T12:20:54.125Z,99425.84
2018-03-11T12:23:22.764Z,99433.98
2018-03-11T12:25:51.219Z,99436.69
2018-03-11T12:28:20.656Z,99444.05
2018-03-11T12:30:49.133Z,99443.41
2018-03-11T12:33:17.568Z,99443.16
2018-03-11T12:35:46.100Z,99446.03
2018-03-11T12:38:15.503Z,99434.60
2018-03-11T12:40:44.016Z,99430.69
2018-03-11T12:43:12.460Z,99436.43
2018-03-11T12:45:42.350Z,99430.91
2018-03-11T12:48:10.967Z,99427.16
2018-03-11T12:50:40.732Z,99422.87
2018-03-11T12:53:09.241Z,99423.70
2018-03-11T12:55:37.736Z,99415.43
2018-03-11T12:58:06.238Z,99415.42
2018-03-11T13:00:34.949Z,99415.48
2018-03-11T13:03:03.434Z,99413.76
2018-03-11T13:05:31.887Z,99415.89
2018-03-11T13:08:03.159Z,99420.17
2018-03-11T13:10:31.597Z,99412.55
2018-03-11T13:13:00.084Z,99405.66
2018-03-11T13:15:28.605Z,99405.17
2018-03-11T13:17:58.206Z,99393.36
2018-03-11T13:20:38.993Z,99389.77
2018-03-11T13:23:07.464Z,99384.37
2018-03-11T13:25:35.924Z,99385.17
2018-03-11T13:28:16.715Z,99387.70
2018-03-11T13:30:45.456Z,99389.88
2018-03-11T13:33:27.041Z,99385.47
2018-03-11T13:35:55.517Z,99379.38
2018-03-11T13:38:35.843Z,99373.26
2018-03-11T13:41:04.324Z,99374.59
2018-03-11T13:43:32.993Z,99376.19
2018-03-11T13:46:14.147Z,99368.64
2018-03-11T13:48:42.772Z,99366.65
2018-03-11T13:51:11.335Z,99368.39
2018-03-11T13:53:49.935Z,99369.84
2018-03-11T13:56:18.441Z,99357.35
2018-03-11T13:58:47.041Z,99358.02
2018-03-11T14:01:15.713Z,99361.75
2018-03-11T14:03:44.268Z,99357.73
2018-03-11T14:06:12.963Z,99359.31
2018-03-11T14:08:41.565Z,99352.62
2018-03-11T14:11:10.232Z,99353.53
2018-03-11T14:13:38.746Z,99351.52
2018-03-11T14:16:07.702Z,99346.16
2018-03-11T14:18:36.163Z,99351.64
2018-03-11T14:21:04.804Z,99350.67
2018-03-11T14:23:33.289Z,99341.55
2018-03-11T14:26:01.899Z,99343.44
2018-03-11T14:28:30.438Z,99342.72
2018-03-11T14:30:58.994Z,99345.02
2018-03-11T14:33:27.559Z,99328.64
2018-03-11T14:35:57.155Z,99324.24
2018-03-11T14:38:26.038Z,99329.71
2018-03-11T14:40:54.517Z,99323.02
2018-03-11T14:43:23.044Z,99315.44
2018-03-11T14:45:51.895Z,99311.08
2018-03-11T14:48:21.764Z,99301.42
2018-03-11T14:50:50.803Z,99314.12
2018-03-11T14:53:19.337Z,99301.27
2018-03-11T14:55:47.997Z,99288.39
2018-03-11T14:58:18.472Z,99289.56
2018-03-11T15:00:47.249Z,99280.23
2018-03-11T15:03:15.775Z,99280.79
2018-03-11T15:05:44.307Z,99279.57
2018-03-11T15:08:13.196Z,99280.12
2018-03-11T15:10:41.986Z,99276.38
2018-03-11T15:13:12.209Z,99278.64
2018-03-11T15:15:40.794Z,99268.49
2018-03-11T15:18:09.741Z,99262.27
2018-03-11T15:20:38.337Z,99259.04
2018-03-11T15:23:08.289Z,99269.42
2018-03-11T15:25:36.911Z,99259.05
2018-03-11T15:28:05.362Z,99254.86
2018-03-11T15:30:34.857Z,99254.79
2018-03-11T15:33:03.545Z,99248.16
2018-03-11T15:35:32.065Z,99248.15
2018-03-11T15:38:02.101Z,99240.36
2018-03-11T15:40:30.565Z,99232.13
2018-03-11T15:42:58.997Z,99228.91
2018-03-11T15:45:27.884Z,99227.73
2018-03-11T15:47:56.353Z,99228.52
2018-03-11T15:50:24.840Z,99229.71
2018-03-11T15:52:53.796Z,99231.72
2018-03-11T15:55:22.339Z,99226.84
2018-03-11T15:57:50.854Z,99225.30
2018-03-11T16:00:20.382Z,99231.95
2018-03-11T16:02:49.184Z,99231.44
2018-03-11T16:05:17.852Z,99229.16
2018-03-11T16:07:47.338Z,99215.31
2018-03-11T16:10:15.825Z,99213.40
2018-03-11T16:12:44.337Z,99214.43
2018-03-11T16:15:13.899Z,99205.37
2018-03-11T16:17:42.723Z,99206.63
2018-03-11T16:20:12.993Z,99209.49
2018-03-11T16:22:42.052Z,99208.02
2018-03-11T16:25:10.833Z,99202.21
2018-03-11T16:27:39.405Z,99205.91
2018-03-11T16:30:08.725Z,99204.31
2018-03-11T16:32:37.218Z,99208.51
2018-03-11T16:35:05.773Z,99208.59
2018-03-11T16:37:34.590Z,99203.16
2018-03-11T16:40:03.120Z,99201.36
2018-03-11T16:42:31.749Z,99190.69
2018-03-11T16:45:00.733Z,99191.98
2018-03-11T16:47:29.254Z,99196.68
2018-03-11T16:49:58.866Z,99190.22
2018-03-11T16:52:27.895Z,99196.08
2018-03-11T16:54:56.605Z,99195.98
2018-03-11T16:57:39.285Z,99196.85
2018-03-11T17:00:08.380Z,99200.87
2018-03-11T17:02:37.949Z,99200.87
2018-03-11T17:05:06.712Z,99197.61
2018-03-11T17:07:35.367Z,99210.94
2018-03-11T17:10:03.959Z,99208.15
2018-03-11T17:12:33.041Z,99209.16
2018-03-11T17:15:01.718Z,99209.67
2018-03-11T17:17:30.266Z,99208.58
2018-03-11T17:19:58.881Z,99212.19
2018-03-11T17:22:27.440Z,99211.99
2018-03-11T17:24:56.097Z,99208.66
2018-03-11T17:27:24.848Z,99209.88
2018-03-11T17:29:53.394Z,99211.58
2018-03-11T17:32:22.627Z,99213.01
2018-03-11T17:34:51.610Z,99222.21
2018-03-11T17:37:20.268Z,99223.05
2018-03-11T17:39:51.202Z,99221.04
2018-03-11T17:42:19.824Z,99209.78
2018-03-11T17:44:48.419Z,99221.27
2018-03-11T17:47:17.301Z,99213.98
2018-03-11T17:49:48.706Z,99223.03
2018-03-11T17:52:17.775Z,99217.89
2018-03-11T17:54:46.494Z,99230.30
2018-03-11T17:57:15.080Z,99223.42
2018-03-11T17:59:44.789Z,99229.95
2018-03-11T18:02:13.260Z,99221.13
2018-03-11T18:04:42.152Z,99221.97
2018-03-11T18:07:11.129Z,99227.58
2018-03-11T18:09:39.630Z,99227.16
2018-03-11T18:12:08.423Z,99226.54
2018-03-11T18:14:36.987Z,99225.28
2018-03-11T18:17:05.571Z,99226.79
2018-03-11T18:19:34.130Z,99234.16
2018-03-11T18:22:02.705Z,99239.73
2018-03-11T18:24:31.218Z,99237.47
2018-03-11T18:26:59.938Z,99239.40
2018-03-11T18:29:28.444Z,99238.06
2018-03-11T18:31:58.219Z,99241.83
2018-03-11T18:34:27.793Z,99234.04
2018-03-11T18:36:56.295Z,99232.95
2018-03-11T18:39:25.008Z,99241.91
2018-03-11T18:41:53.761Z,99232.94
2018-03-11T18:44:22.372Z,99233.36
2018-03-11T18:46:50.839Z,99230.06
2018-03-11T18:49:19.726Z,99228.80
2018-03-11T18:51:48.228Z,99232.73
2018-03-11T18:54:16.903Z,99237.00
2018-03-11T18:56:45.524Z,99240.66
2018-03-11T18:59:14.793Z,99240.28
2018-03-11T19:01:43.610Z,99242.41
2018-03-11T19:04:13.355Z,99238.55
2018-03-11T19:06:42.515Z,99239.64
2018-03-11T19:09:11.881Z,99240.31
2018-03-11T19:11:40.874Z,99233.66
2018-03-11T19:14:10.088Z,99250.03
2018-03-11T19:16:38.980Z,99239.61
2018-03-11T19:19:08.420Z,99239.91
2018-03-11T19:21:45.264Z,99239.02
2018-03-11T19:24:20.285Z,99241.99
2018-03-11T19:26:54.086Z,99242.03
2018-03-11T19:29:23.389Z,99246.37
2018-03-11T19:31:57.738Z,99243.45
2018-03-11T19:34:31.816Z,99240.94
2018-03-11T19:37:05.960Z,99244.45
2018-03-11T19:39:34.621Z,99239.80
2018-03-11T19:42:03.207Z,99240.34
2018-03-11T19:44:31.651Z,99239.00
2018-03-11T19:47:00.169Z,99237.14
2018-03-11T19:49:43.917Z,99239.98
2018-03-11T19:52:13.627Z,99236.47
2018-03-11T19:54:42.297Z,99238.73
2018-03-11T19:57:11.537Z,99237.23
2018-03-11T19:59:40.076Z,99236.00
2018-03-11T20:02:08.666Z,99231.94
2018-03-11T20:04:37.239Z,99238.22
2018-03-11T20:07:05.964Z,99231.66
2018-03-11T20:09:34.453Z,99225.04
2018-03-11T20:12:03.005Z,99233.22
2018-03-11T20:14:31.622Z,99227.37
2018-03-11T20:17:00.320Z,99230.38
2018-03-11T20:19:28.788Z,99230.42
2018-03-11T20:21:57.468Z,99233.66
2018-03-11T20:24:26.035Z,99234.33
2018-03-11T20:26:54.526Z,99244.77
2018-03-11T20:29:23.091Z,99243.86
2018-03-11T20:31:51.621Z,99245.48
2018-03-11T20:34:21.573Z,99247.48
2018-03-11T20:36:50.196Z,99243.71
2018-03-11T20:39:18.748Z,99247.08
2018-03-11T20:41:47.581Z,99247.01
2018-03-11T20:44:17.354Z,99252.18
2018-03-11T20:46:46.170Z,99249.41
2018-03-11T20:49:14.963Z,99247.25
2018-03-11T20:51:44.262Z,99245.58
2018-03-11T20:54:14.779Z,99244.91
2018-03-11T20:56:43.594Z,99249.72
2018-03-11T20:59:12.446Z,99246.98
2018-03-11T21:01:41.155Z,99236.60
2018-03-11T21:04:09.830Z,99232.02
2018-03-11T21:06:38.562Z,99237.52
2018-03-11T21:09:07.010Z,99242.03
2018-03-11T21:11:35.636Z,99240.52
2018-03-11T21:14:05.291Z,99233.33
2018-03-11T21:16:33.858Z,99232.78
2018-03-11T21:19:02.492Z,99231.84
2018-03-11T21:21:32.254Z,99234.17
2018-03-11T21:24:00.735Z,99222.55
2018-03-11T21:26:29.254Z,99230.60
2018-03-11T21:28:58.416Z,99223.66
2018-03-11T21:31:26.870Z,99213.11
2018-03-11T21:33:56.137Z,99224.65
2018-03-11T21:36:24.644Z,99218.30
2018-03-11T21:38:53.099Z,99228.69
2018-03-11T21:41:21.556Z,99216.28
2018-03-11T21:43:50.976Z,99221.23
2018-03-11T21:46:19.874Z,99220.70
2018-03-11T21:48:48.638Z,99225.08
2018-03-11T21:51:17.643Z,99219.28
2018-03-11T21:53:47.290Z,99220.88
2018-03-11T21:56:16.374Z,99225.55
2018-03-11T21:58:45.666Z,99228.22
2018-03-11T22:01:15.048Z,99222.22
2018-03-11T22:03:45.192Z,99228.48
2018-03-11T22:06:14.869Z,99217.62
2018-03-11T22:08:43.940Z,99220.94
2018-03-11T22:11:13.572Z,99221.80
2018-03-11T22:13:42.130Z,99219.22
2018-03-11T22:16:14.987Z,99215.28
2018-03-11T22:18:44.360Z,99218.03
2018-03-11T22:21:13.445Z,99220.36
2018-03-11T22:23:42.979Z,99212.33
2018-03-11T22:26:12.239Z,99210.69
2018-03-11T22:28:42.187Z,99207.33
2018-03-11T22:31:13.612Z,99210.47
2018-03-11T22:33:43.744Z,99209.84
2018-03-11T22:36:12.643Z,99205.80
2018-03-11T22:38:42.649Z,99211.34
2018-03-11T22:41:11.547Z,99214.09
2018-03-11T22:43:44.079Z,99200.55
2018-03-11T22:46:12.976Z,99209.13
2018-03-11T22:48:42.038Z,99202.39
2018-03-11T22:51:10.935Z,99199.97
2018-03-11T22:53:39.467Z,99195.42
2018-03-11T22:56:07.942Z,99196.76
2018-03-11T22:58:36.578Z,99199.81
2018-03-11T23:01:05.217Z,99195.90
2018-03-11T23:03:34.307Z,99194.33
2018-03-11T23:06:02.791Z,99197.45
2018-03-11T23:08:31.264Z,99192.55
2018-03-11T23:10:59.801Z,99193.31
2018-03-11T23:13:29.054Z,99197.41
2018-03-11T23:16:00.711Z,99195.18
2018-03-11T23:18:29.263Z,99189.05
2018-03-11T23:20:59.389Z,99179.02
2018-03-11T23:23:27.985Z,99187.00
2018-03-11T23:25:57.378Z,99183.25
2018-03-11T23:28:25.913Z,99177.08
2018-03-11T23:30:54.598Z,99176.22
2018-03-11T23:33:24.125Z,99177.27
2018-03-11T23:35:53.542Z,99175.23
2018-03-11T23:38:22.086Z,99169.30
2018-03-11T23:40:50.695Z,99172.21
2018-03-11T23:43:19.849Z,99168.19
2018-03-11T23:45:48.550Z,99163.16
2018-03-11T23:48:17.274Z,99170.33
2018-03-11T23:50:46.330Z,99166.83
2018-03-11T23:53:15.404Z,99165.80
2018-03-11T23:55:44.282Z,99157.98
2018-03-11T23:58:14.115Z,99161.98
